Aviation Digital Data Service (ADDS)

Output produced by METARs form (0553 UTC 23 October 2014)
found at http://aviationweather.gov/adds/metars/
 
KSWF 230528Z 2306/2412 01017G27KT P6SM BKN015 
     TEMPO 2306/2309 4SM -RA BR SCT015 BKN030 
     FM230900 01015G25KT 5SM BR VCSH BKN010 
     FM231400 36013G24KT P6SM VCSH BKN015 
     FM231800 34013G22KT P6SM BKN025 OVC035 
     FM232200 33011KT P6SM BKN035 BKN080 
     FM240400 30010KT P6SM BKN040 BKN080 AMD NOT SKED